SBBR/BSB METAR and TAF weather

Enter ICAO airport designator
Station Type Date Time Source
SBBR METAR 2020/09/23 18:00 UTC NOAA

SBBR 231800Z 09007KT 050V120 9999 FEW025 BKN090 24/18 Q1022


Station Type Date Time Source
SBBR Decoded METAR 2020/09/23 18:00 UTC NOAA

Brasilia Aeroporto , Brazil (SBBR) 15-52S 047-56W 1061M
Sep 23, 2020 - 02:00 PM EDT / 2020.09.23 1800 UTC
Wind: from the E (090 degrees) at 8 MPH (7 KT) (direction variable):0
Visibility: greater than 7 mile(s):0
Sky conditions: mostly cloudy
Temperature: 75 F (24 C)
Dew Point: 64 F (18 C)
Relative Humidity: 69%
Pressure (altimeter): 30.18 in. Hg (1022 hPa)
ob: SBBR 231800Z 09007KT 050V120 9999 FEW025 BKN090 24/18 Q1022
cycle: 18

Station Type Date Time Source
SBBR TAF 2020/09/23 18:28 UTC NOAA

TAF SBBR 230715Z 2318/2418 07006KT 9999 BKN025 TN18/2409Z TX28/2417Z PROB40 2320/2324 15005KT SHRA BKN025 FEW045TCU
BECMG 2401/2403 12006KT 8000 NSC PROB30 2408/2411 09008KT BKN008
BECMG 2411/2413 08010KT
BECMG 2413/2415 9999 SCT030 PROB30
TEMPO 2415/2418 8000 SHRA SCT030 FEW040TCU
RMK PGH

Example: see airport list